createdAt,value
2018-03-17T00:01:13.059Z,7.45
2018-03-17T00:03:44.047Z,7.41
2018-03-17T00:06:15.049Z,7.36
2018-03-17T00:08:46.018Z,7.37
2018-03-17T00:11:16.989Z,7.36
2018-03-17T00:13:47.972Z,7.32
2018-03-17T00:16:19.005Z,7.28
2018-03-17T00:18:50.012Z,7.26
2018-03-17T00:21:20.979Z,7.26
2018-03-17T00:23:51.976Z,7.20
2018-03-17T00:26:22.965Z,7.15
2018-03-17T00:28:53.988Z,7.10
2018-03-17T00:31:24.982Z,7.05
2018-03-17T00:33:56.001Z,7.00
2018-03-17T00:36:26.968Z,6.97
2018-03-17T00:38:57.974Z,6.96
2018-03-17T00:41:28.954Z,6.93
2018-03-17T00:43:59.944Z,6.91
2018-03-17T00:46:30.955Z,6.86
2018-03-17T00:49:01.966Z,6.84
2018-03-17T00:51:32.931Z,6.85
2018-03-17T00:54:03.977Z,6.83
2018-03-17T00:56:34.964Z,6.80
2018-03-17T00:59:05.960Z,6.76
2018-03-17T01:01:36.961Z,6.75
2018-03-17T01:04:07.947Z,6.75
2018-03-17T01:06:39.042Z,6.70
2018-03-17T01:09:10.055Z,6.66
2018-03-17T01:11:41.082Z,6.66
2018-03-17T01:14:12.069Z,6.65
2018-03-17T01:16:43.122Z,6.63
2018-03-17T01:19:14.125Z,6.61
2018-03-17T01:21:45.388Z,6.60
2018-03-17T01:24:16.403Z,6.63
2018-03-17T01:26:47.403Z,6.67
2018-03-17T01:29:18.393Z,6.75
2018-03-17T01:31:49.360Z,6.85
2018-03-17T01:34:20.379Z,6.91
2018-03-17T01:36:51.342Z,6.98
2018-03-17T01:39:22.369Z,7.12
2018-03-17T01:41:53.385Z,7.25
2018-03-17T01:44:24.333Z,7.39
2018-03-17T01:46:55.380Z,7.51
2018-03-17T01:49:26.362Z,7.49
2018-03-17T01:51:57.433Z,7.34
2018-03-17T01:54:30.258Z,7.24
2018-03-17T01:57:01.261Z,7.14
2018-03-17T01:59:32.293Z,7.05
2018-03-17T02:02:03.305Z,6.91
2018-03-17T02:04:34.357Z,6.80
2018-03-17T02:07:05.329Z,6.73
2018-03-17T02:09:36.300Z,6.77
2018-03-17T02:12:07.313Z,6.88
2018-03-17T02:14:38.347Z,6.95
2018-03-17T02:17:09.387Z,6.87
2018-03-17T02:19:40.392Z,6.85
2018-03-17T02:22:11.462Z,6.83
2018-03-17T02:24:42.521Z,6.79
2018-03-17T02:27:13.500Z,6.75
2018-03-17T02:29:44.506Z,6.73
2018-03-17T02:32:15.712Z,6.76
2018-03-17T02:34:46.747Z,6.78
2018-03-17T02:37:17.761Z,6.79
2018-03-17T02:39:48.802Z,6.76
2018-03-17T02:42:19.799Z,6.74
2018-03-17T02:44:50.792Z,6.73
2018-03-17T02:47:21.804Z,6.72
2018-03-17T02:49:52.801Z,6.73
2018-03-17T02:52:23.773Z,6.75
2018-03-17T02:54:54.761Z,6.73
2018-03-17T02:57:25.752Z,6.73
2018-03-17T02:59:56.800Z,6.71
2018-03-17T03:02:27.772Z,6.70
2018-03-17T03:04:58.774Z,6.69
2018-03-17T03:07:29.765Z,6.68
2018-03-17T03:10:00.782Z,6.65
2018-03-17T03:12:31.763Z,6.67
2018-03-17T03:15:02.816Z,6.66
2018-03-17T03:17:33.822Z,6.64
2018-03-17T03:20:04.861Z,6.63
2018-03-17T03:22:35.819Z,6.61
2018-03-17T03:25:06.830Z,6.61
2018-03-17T03:27:37.808Z,6.60
2018-03-17T03:30:08.845Z,6.59
2018-03-17T03:32:39.869Z,6.62
2018-03-17T03:35:10.848Z,6.56
2018-03-17T03:37:41.860Z,6.52
2018-03-17T03:40:12.852Z,6.51
2018-03-17T03:42:43.804Z,6.50
2018-03-17T03:45:14.759Z,6.50
2018-03-17T03:47:45.739Z,6.49
2018-03-17T03:50:16.714Z,6.47
2018-03-17T03:52:47.713Z,6.46
2018-03-17T03:55:18.684Z,6.55
2018-03-17T03:57:49.649Z,6.69
2018-03-17T04:00:20.634Z,6.88
2018-03-17T04:02:51.681Z,7.06
2018-03-17T04:05:22.671Z,7.17
2018-03-17T04:07:53.657Z,7.25
2018-03-17T04:10:24.715Z,7.35
2018-03-17T04:12:55.706Z,7.46
2018-03-17T04:15:26.769Z,7.51
2018-03-17T04:17:57.722Z,7.54
2018-03-17T04:20:28.749Z,7.57
2018-03-17T04:22:59.722Z,7.62
2018-03-17T04:25:30.724Z,7.65
2018-03-17T04:28:01.710Z,7.72
2018-03-17T04:30:32.721Z,7.72
2018-03-17T04:33:03.708Z,7.67
2018-03-17T04:35:34.724Z,7.74
2018-03-17T04:38:05.724Z,7.89
2018-03-17T04:40:36.749Z,7.85
2018-03-17T04:43:07.771Z,7.74
2018-03-17T04:45:38.755Z,7.59
2018-03-17T04:48:09.729Z,7.56
2018-03-17T04:50:40.796Z,7.65
2018-03-17T04:53:11.761Z,7.74
2018-03-17T04:55:42.764Z,7.77
2018-03-17T04:58:13.777Z,7.80
2018-03-17T05:00:44.771Z,7.76
2018-03-17T05:03:15.789Z,7.75
2018-03-17T05:05:46.786Z,7.78
2018-03-17T05:08:17.776Z,7.69
2018-03-17T05:10:48.762Z,7.83
2018-03-17T05:13:19.735Z,7.98
2018-03-17T05:15:50.746Z,8.14
2018-03-17T05:18:21.715Z,8.23
2018-03-17T05:20:52.727Z,8.36
2018-03-17T05:23:23.691Z,8.43
2018-03-17T05:25:54.684Z,8.46
2018-03-17T05:28:25.665Z,8.37
2018-03-17T05:30:56.638Z,8.26
2018-03-17T05:33:27.634Z,8.14
2018-03-17T05:35:58.656Z,8.20
2018-03-17T05:38:29.681Z,8.20
2018-03-17T05:41:00.680Z,8.27
2018-03-17T05:43:31.663Z,8.16
2018-03-17T05:46:05.594Z,8.20
2018-03-17T05:48:36.595Z,8.12
2018-03-17T05:51:07.613Z,8.16
2018-03-17T05:53:38.610Z,8.28
2018-03-17T05:56:09.606Z,8.26
2018-03-17T05:58:40.646Z,8.27
2018-03-17T06:01:11.630Z,8.20
2018-03-17T06:03:42.653Z,8.21
2018-03-17T06:06:13.667Z,8.20
2018-03-17T06:08:44.657Z,8.14
2018-03-17T06:11:15.697Z,7.98
2018-03-17T06:13:46.712Z,7.89
2018-03-17T06:16:17.710Z,7.82
2018-03-17T06:18:48.744Z,7.86
2018-03-17T06:21:19.755Z,7.58
2018-03-17T06:23:50.738Z,7.33
2018-03-17T06:26:21.731Z,7.31
2018-03-17T06:28:52.728Z,7.33
2018-03-17T06:31:23.733Z,7.34
2018-03-17T06:33:54.757Z,7.25
2018-03-17T06:36:25.783Z,7.21
2018-03-17T06:38:56.792Z,7.18
2018-03-17T06:41:27.795Z,7.35
2018-03-17T06:43:58.784Z,7.20
2018-03-17T06:46:29.799Z,7.31
2018-03-17T06:49:00.814Z,7.25
2018-03-17T06:51:31.845Z,7.40
2018-03-17T06:54:02.855Z,7.45
2018-03-17T06:56:33.844Z,7.43
2018-03-17T06:59:04.859Z,7.56
2018-03-17T07:01:35.917Z,7.73
2018-03-17T07:04:06.924Z,7.89
2018-03-17T07:06:37.973Z,8.04
2018-03-17T07:09:09.011Z,8.00
2018-03-17T07:11:40.023Z,7.99
2018-03-17T07:14:11.021Z,8.01
2018-03-17T07:16:42.018Z,8.09
2018-03-17T07:19:13.063Z,8.18
2018-03-17T07:21:44.121Z,8.00
2018-03-17T07:24:15.139Z,7.97
2018-03-17T07:26:46.176Z,8.14
2018-03-17T07:29:17.178Z,8.17
2018-03-17T07:31:48.210Z,8.18
2018-03-17T07:34:19.229Z,8.13
2018-03-17T07:36:50.280Z,8.35
2018-03-17T07:39:21.321Z,8.17
2018-03-17T07:41:52.486Z,8.15
2018-03-17T07:44:23.504Z,8.37
2018-03-17T07:46:54.503Z,8.54
2018-03-17T07:49:25.598Z,8.64
2018-03-17T07:51:56.573Z,8.21
2018-03-17T07:54:27.598Z,8.30
2018-03-17T07:56:58.563Z,8.53
2018-03-17T07:59:29.568Z,8.70
2018-03-17T08:02:00.582Z,8.69
2018-03-17T08:04:31.582Z,8.86
2018-03-17T08:07:02.667Z,8.97
2018-03-17T08:09:33.729Z,9.18
2018-03-17T08:12:04.714Z,9.02
2018-03-17T08:14:35.675Z,8.84
2018-03-17T08:17:06.685Z,8.94
2018-03-17T08:19:37.703Z,8.77
2018-03-17T08:22:08.742Z,8.74
2018-03-17T08:24:39.756Z,8.70
2018-03-17T08:27:10.797Z,8.56
2018-03-17T08:29:41.822Z,8.30
2018-03-17T08:32:12.872Z,8.10
2018-03-17T08:34:43.892Z,8.21
2018-03-17T08:37:21.951Z,8.55
2018-03-17T08:39:52.966Z,8.43
2018-03-17T08:42:23.958Z,8.26
2018-03-17T08:44:55.010Z,8.51
2018-03-17T08:47:26.074Z,8.72
2018-03-17T08:49:57.156Z,8.38
2018-03-17T08:52:28.238Z,8.08
2018-03-17T08:54:59.243Z,7.89
2018-03-17T08:57:30.195Z,7.80
2018-03-17T09:00:01.203Z,7.66
2018-03-17T09:02:32.164Z,7.71
2018-03-17T09:05:03.217Z,7.77
2018-03-17T09:07:34.257Z,7.81
2018-03-17T09:10:05.203Z,7.90
2018-03-17T09:12:36.318Z,7.97
2018-03-17T09:15:07.303Z,7.95
2018-03-17T09:17:38.284Z,8.12
2018-03-17T09:20:09.269Z,8.20
2018-03-17T09:22:40.250Z,8.34
2018-03-17T09:25:11.277Z,8.46
2018-03-17T09:27:42.334Z,8.57
2018-03-17T09:30:13.320Z,8.70
2018-03-17T09:32:44.327Z,8.73
2018-03-17T09:35:15.305Z,8.56
2018-03-17T09:37:46.313Z,8.37
2018-03-17T09:40:17.330Z,8.17
2018-03-17T09:42:48.356Z,8.19
2018-03-17T09:45:19.382Z,8.19
2018-03-17T09:47:50.375Z,8.32
2018-03-17T09:50:21.385Z,8.28
2018-03-17T09:52:52.363Z,8.34
2018-03-17T09:55:23.362Z,8.22
2018-03-17T09:57:54.604Z,8.15
2018-03-17T10:00:25.651Z,8.44
2018-03-17T10:02:56.618Z,8.86
2018-03-17T10:05:27.611Z,8.94
2018-03-17T10:07:58.573Z,8.72
2018-03-17T10:10:29.591Z,8.87
2018-03-17T10:13:00.575Z,8.93
2018-03-17T10:15:31.535Z,9.04
2018-03-17T10:18:02.507Z,9.44
2018-03-17T10:20:33.485Z,9.80
2018-03-17T10:23:04.516Z,9.80
2018-03-17T10:25:35.507Z,10.03
2018-03-17T10:28:06.481Z,10.36
2018-03-17T10:30:37.469Z,10.04
2018-03-17T10:33:08.451Z,10.16
2018-03-17T10:35:39.454Z,10.28
2018-03-17T10:38:10.455Z,10.29
2018-03-17T10:40:41.480Z,9.75
2018-03-17T10:43:12.534Z,9.54
2018-03-17T10:45:43.559Z,9.55
2018-03-17T10:48:14.586Z,9.87
2018-03-17T10:50:45.577Z,9.80
2018-03-17T10:53:16.584Z,9.96
2018-03-17T10:55:47.619Z,10.00
2018-03-17T10:58:18.657Z,9.69
2018-03-17T11:00:53.702Z,9.80
2018-03-17T11:03:24.703Z,9.91
2018-03-17T11:05:55.819Z,9.94
2018-03-17T11:08:26.871Z,10.02
2018-03-17T11:10:57.973Z,9.61
2018-03-17T11:13:28.986Z,9.45
2018-03-17T11:16:00.019Z,9.82
2018-03-17T11:18:31.179Z,10.16
2018-03-17T11:21:02.179Z,10.62
2018-03-17T11:23:33.170Z,10.78
2018-03-17T11:26:04.223Z,10.97
2018-03-17T11:28:35.233Z,10.75
2018-03-17T11:31:06.235Z,11.02
2018-03-17T11:33:37.204Z,11.21
2018-03-17T11:36:08.187Z,11.37
2018-03-17T11:38:39.221Z,11.20
2018-03-17T11:41:10.224Z,10.97
2018-03-17T11:43:41.263Z,11.11
2018-03-17T11:46:12.239Z,11.42
2018-03-17T11:48:43.224Z,11.23
2018-03-17T11:51:14.184Z,10.64
2018-03-17T11:53:45.171Z,10.14
2018-03-17T11:56:16.140Z,10.14
2018-03-17T11:58:47.200Z,10.02
2018-03-17T12:01:18.214Z,9.99
2018-03-17T12:03:49.280Z,9.97
2018-03-17T12:06:20.252Z,9.81
2018-03-17T12:08:51.330Z,10.08
2018-03-17T12:11:22.360Z,10.15
2018-03-17T12:13:53.363Z,10.34
2018-03-17T12:16:24.333Z,10.75
2018-03-17T12:18:55.447Z,10.78
2018-03-17T12:21:26.421Z,11.05
2018-03-17T12:23:57.424Z,11.00
2018-03-17T12:26:28.388Z,11.26
2018-03-17T12:28:59.413Z,11.60
2018-03-17T12:31:30.400Z,11.82
2018-03-17T12:34:01.440Z,11.51
2018-03-17T12:36:32.469Z,10.94
2018-03-17T12:39:03.508Z,10.42
2018-03-17T12:41:34.599Z,10.19
2018-03-17T12:44:05.597Z,10.08
2018-03-17T12:46:36.593Z,10.17
2018-03-17T12:49:07.605Z,9.95
2018-03-17T12:51:38.596Z,10.31
2018-03-17T12:54:09.551Z,10.67
2018-03-17T12:56:40.608Z,10.76
2018-03-17T12:59:11.591Z,10.09
2018-03-17T13:01:42.557Z,9.40
2018-03-17T13:04:13.621Z,9.05
2018-03-17T13:06:44.652Z,9.15
2018-03-17T13:09:15.638Z,9.02
2018-03-17T13:11:46.675Z,9.10
2018-03-17T13:14:17.711Z,9.12
2018-03-17T13:16:48.724Z,9.11
2018-03-17T13:19:27.085Z,9.21
2018-03-17T13:21:58.019Z,8.94
2018-03-17T13:24:29.033Z,8.64
2018-03-17T13:27:12.288Z,8.47
2018-03-17T13:29:43.351Z,8.26
2018-03-17T13:32:26.856Z,8.28
2018-03-17T13:34:57.931Z,8.17
2018-03-17T13:37:39.972Z,7.92
2018-03-17T13:40:23.286Z,7.80
2018-03-17T13:42:54.529Z,7.93
2018-03-17T13:45:25.569Z,8.30
2018-03-17T13:47:56.593Z,8.65
2018-03-17T13:50:28.479Z,8.58
2018-03-17T13:52:59.503Z,8.29
2018-03-17T13:55:30.510Z,7.93
2018-03-17T13:58:01.531Z,7.38
2018-03-17T14:00:33.386Z,7.04
2018-03-17T14:03:04.378Z,6.86
2018-03-17T14:05:35.545Z,6.93
2018-03-17T14:08:06.536Z,6.94
2018-03-17T14:10:37.609Z,6.93
2018-03-17T14:13:08.602Z,6.78
2018-03-17T14:15:39.589Z,6.73
2018-03-17T14:18:10.615Z,6.73
2018-03-17T14:20:41.602Z,6.37
2018-03-17T14:23:12.605Z,6.22
2018-03-17T14:25:43.864Z,6.05
2018-03-17T14:28:14.841Z,5.79
2018-03-17T14:30:45.959Z,5.90
2018-03-17T14:33:16.988Z,6.17
2018-03-17T14:35:48.023Z,6.09
2018-03-17T14:38:19.102Z,5.95
2018-03-17T14:40:50.119Z,6.11
2018-03-17T14:43:21.113Z,5.91
2018-03-17T14:45:52.140Z,5.77
2018-03-17T14:48:23.171Z,5.85
2018-03-17T14:50:54.168Z,5.63
2018-03-17T14:53:25.172Z,5.32
2018-03-17T14:55:56.209Z,5.11
2018-03-17T14:58:27.249Z,5.17
2018-03-17T15:00:58.344Z,5.23
2018-03-17T15:03:29.361Z,5.01
2018-03-17T15:06:00.472Z,5.12
2018-03-17T15:08:31.509Z,5.23
2018-03-17T15:11:02.536Z,5.36
2018-03-17T15:13:33.539Z,5.22
2018-03-17T15:16:04.527Z,5.18
2018-03-17T15:18:35.666Z,5.07
2018-03-17T15:21:06.666Z,4.88
2018-03-17T15:23:37.662Z,4.80
2018-03-17T15:26:08.662Z,4.81
2018-03-17T15:28:39.633Z,4.79
2018-03-17T15:31:10.673Z,4.78
2018-03-17T15:33:41.648Z,4.60
2018-03-17T15:36:12.669Z,4.48
2018-03-17T15:38:43.723Z,4.33
2018-03-17T15:41:14.718Z,4.09
2018-03-17T15:43:45.727Z,3.98
2018-03-17T15:46:16.720Z,3.81
2018-03-17T15:48:47.731Z,3.75
2018-03-17T15:51:18.720Z,3.69
2018-03-17T15:53:49.757Z,3.68
2018-03-17T15:56:20.765Z,3.82
2018-03-17T15:58:51.824Z,3.95
2018-03-17T16:01:22.875Z,3.88
2018-03-17T16:03:53.867Z,3.72
2018-03-17T16:06:24.954Z,3.63
2018-03-17T16:08:55.916Z,3.79
2018-03-17T16:11:26.934Z,3.76
2018-03-17T16:13:57.905Z,3.44
2018-03-17T16:16:28.905Z,3.23
2018-03-17T16:18:59.870Z,3.15
2018-03-17T16:21:30.894Z,3.00
2018-03-17T16:24:01.920Z,2.96
2018-03-17T16:26:32.911Z,3.06
2018-03-17T16:29:03.970Z,3.01
2018-03-17T16:31:35.219Z,3.15
2018-03-17T16:34:06.259Z,3.07
2018-03-17T16:36:37.277Z,3.17
2018-03-17T16:39:08.314Z,3.16
2018-03-17T16:41:39.317Z,3.10
2018-03-17T16:44:10.358Z,2.98
2018-03-17T16:46:41.416Z,2.86
2018-03-17T16:49:12.621Z,2.71
2018-03-17T16:51:43.672Z,2.77
2018-03-17T16:54:14.684Z,2.82
2018-03-17T16:56:45.757Z,3.04
2018-03-17T16:59:16.786Z,2.95
2018-03-17T17:01:47.743Z,2.78
2018-03-17T17:04:18.745Z,2.73
2018-03-17T17:06:49.764Z,2.77
2018-03-17T17:09:20.740Z,2.81
2018-03-17T17:11:51.779Z,2.82
2018-03-17T17:14:22.829Z,2.75
2018-03-17T17:16:53.842Z,2.79
2018-03-17T17:19:26.217Z,2.90
2018-03-17T17:21:57.305Z,2.90
2018-03-17T17:24:28.306Z,2.85
2018-03-17T17:26:59.596Z,2.94
2018-03-17T17:29:30.624Z,2.86
2018-03-17T17:32:01.626Z,2.56
2018-03-17T17:34:32.638Z,2.57
2018-03-17T17:37:03.684Z,2.44
2018-03-17T17:39:34.709Z,2.51
2018-03-17T17:42:05.689Z,2.74
2018-03-17T17:44:36.675Z,2.91
2018-03-17T17:47:07.643Z,2.82
2018-03-17T17:49:38.715Z,2.79
2018-03-17T17:52:10.902Z,2.69
2018-03-17T17:54:41.979Z,2.46
2018-03-17T17:57:13.045Z,2.39
2018-03-17T17:59:44.056Z,2.50
2018-03-17T18:02:15.015Z,2.58
2018-03-17T18:04:46.083Z,2.66
2018-03-17T18:07:17.108Z,2.62
2018-03-17T18:09:48.095Z,2.63
2018-03-17T18:12:19.111Z,2.72
2018-03-17T18:14:50.147Z,2.85
2018-03-17T18:17:21.160Z,2.69
2018-03-17T18:19:52.233Z,2.76
2018-03-17T18:22:23.247Z,2.81
2018-03-17T18:24:54.314Z,2.73
2018-03-17T18:27:25.379Z,2.82
2018-03-17T18:29:56.537Z,2.79
2018-03-17T18:32:27.710Z,2.82
2018-03-17T18:34:58.919Z,2.73
2018-03-17T18:37:29.930Z,2.68
2018-03-17T18:40:01.019Z,2.72
2018-03-17T18:42:32.099Z,2.58
2018-03-17T18:45:03.177Z,2.34
2018-03-17T18:47:34.209Z,2.15
2018-03-17T18:50:05.220Z,2.20
2018-03-17T18:52:36.302Z,2.22
2018-03-17T18:55:07.419Z,2.36
2018-03-17T18:57:38.454Z,2.55
2018-03-17T19:00:10.240Z,2.65
2018-03-17T19:02:41.585Z,2.43
2018-03-17T19:05:12.939Z,2.43
2018-03-17T19:07:43.965Z,2.43
2018-03-17T19:10:15.021Z,2.53
2018-03-17T19:12:46.394Z,2.37
2018-03-17T19:15:17.462Z,2.28
2018-03-17T19:17:48.491Z,2.15
2018-03-17T19:20:26.567Z,2.04
2018-03-17T19:22:58.079Z,1.94
2018-03-17T19:25:36.174Z,1.81
2018-03-17T19:28:07.230Z,1.77
2018-03-17T19:30:38.268Z,1.88
2018-03-17T19:33:09.289Z,2.04
2018-03-17T19:35:40.374Z,2.06
2018-03-17T19:38:11.481Z,2.02
2018-03-17T19:40:42.523Z,2.08
2018-03-17T19:43:13.547Z,1.94
2018-03-17T19:45:44.588Z,1.81
2018-03-17T19:48:15.560Z,1.93
2018-03-17T19:50:46.732Z,1.67
2018-03-17T19:53:18.119Z,1.50
2018-03-17T19:55:49.280Z,1.54
2018-03-17T19:58:20.284Z,1.61
2018-03-17T20:00:51.331Z,1.71
2018-03-17T20:03:22.689Z,1.85
2018-03-17T20:05:54.159Z,1.98
2018-03-17T20:08:25.148Z,1.85
2018-03-17T20:10:56.178Z,1.72
2018-03-17T20:13:27.251Z,1.65
2018-03-17T20:15:58.279Z,1.66
2018-03-17T20:18:29.280Z,1.63
2018-03-17T20:21:00.322Z,1.60
2018-03-17T20:23:31.427Z,1.49
